Birken, Canada
Current Conditions -  °F | °C
As of 9:00 PM on Monday 22 Dec 2014 (Local Time) from CWLY Reporting Station
Overcast Overcast  
Wind Chill: 34°   Ceiling: 15000
Heat Index: 34°   Visibility: 9mi
Dew Point: 32°   Wind: 3mph
Humidity: 93%   Direction: 160°SSE
Pressure: 30.35"   Gusts: NA
Location:  50.48°N, 122.61°W
Report Text: CWLY 230500Z AUTO 16003KT 9SM OVC150 01/M00 A3035 RMK SLP288
Loading
Personal Weather Stations






























Interactive Weather Map New forecast layout! Learn more

10-Day Weather Forecast

Advertisements
Track Severe Weather on mobile